^^
Meteo Knjazevac Station Historical Data
Daily Summary for May 23, 2022 Units:  Metric    English   Both
Daily Weekly Monthly Yearly Custom
  High: Low: Average:
Temperature: 27.6 °C 10.7 °C 19.5 °C
Dew Point: 13.8 °C 7.8 °C 11.6 °C
Humidity: 85% 42% 63%
Wind Speed: 20.9km/h 0km/h 4.7km/h
Wind Gust: 32.2km/h - -
Wind- - WSW
Pressure: 1014.8 hPa 1011.7 hPa -
Precipitation: 0 mm    
Historical Graphs
 
 
Tabular Data for May 23, 2022
Time Temperature Dew Point Pressure Wind Wind Speed Wind Gust Humidity Rainfall Rate (Hourly) solar Conditions
00:00 13 °C 9.3 °C 1014.8 hPa West 3.2 km/h 6.4 km/h 78% 0 mm 0 W/m2
00:10 12.8 °C 9.1 °C 1014.8 hPa Calm   4.8 km/h 78% 0 mm 0 W/m2
00:20 12.8 °C 9.2 °C 1014.8 hPa WSW 1.6 km/h 6.4 km/h 79% 0 mm 0 W/m2
00:30 12.6 °C 9.1 °C 1014.8 hPa Calm   3.2 km/h 79% 0 mm 0 W/m2
00:40 12.5 °C 9 °C 1014.8 hPa Calm   1.6 km/h 79% 0 mm 0 W/m2
00:50 12.3 °C 8.8 °C 1014.8 hPa WNW 1.6 km/h 3.2 km/h 79% 0 mm 0 W/m2
01:00 12.2 °C 8.9 °C 1014.8 hPa Calm   3.2 km/h 80% 0 mm 0 W/m2
01:10 12.1 °C 8.8 °C 1014.8 hPa Calm   3.2 km/h 80% 0 mm 0 W/m2
01:20 11.8 °C 8.3 °C 1014.4 hPa Calm   3.2 km/h 79% 0 mm 0 W/m2
01:30 11.6 °C 8.3 °C 1014.8 hPa Calm   3.2 km/h 80% 0 mm 0 W/m2
01:40 11.2 °C 7.9 °C 1014.8 hPa Calm   1.6 km/h 80% 0 mm 0 W/m2
01:50 10.9 °C 7.8 °C 1014.8 hPa WNW 1.6 km/h 3.2 km/h 81% 0 mm 0 W/m2
02:00 10.8 °C 8 °C 1014.8 hPa NW 1.6 km/h 3.2 km/h 83% 0 mm 0 W/m2
02:10 10.7 °C 7.9 °C 1014.8 hPa Calm   3.2 km/h 83% 0 mm 0 W/m2
02:20 10.8 °C 8 °C 1014.8 hPa West 1.6 km/h 3.2 km/h 83% 0 mm 0 W/m2
02:30 10.7 °C 8.1 °C 1014.8 hPa NW 3.2 km/h 4.8 km/h 84% 0 mm 0 W/m2
02:40 11 °C 8.6 °C 1014.8 hPa Calm   4.8 km/h 85% 0 mm 0 W/m2
02:50 11.1 °C 8.5 °C 1014.8 hPa Calm   3.2 km/h 84% 0 mm 0 W/m2
03:00 11 °C 8.4 °C 1014.8 hPa West 1.6 km/h 3.2 km/h 84% 0 mm 0 W/m2
03:10 11.1 °C 8.5 °C 1014.8 hPa Calm   3.2 km/h 84% 0 mm 0 W/m2
03:20 11.2 °C 8.6 °C 1014.8 hPa NW 1.6 km/h 3.2 km/h 84% 0 mm 0 W/m2
03:30 11.3 °C 8.7 °C 1014.4 hPa Calm   3.2 km/h 84% 0 mm 0 W/m2
03:40 11.4 °C 8.9 °C 1014.4 hPa WNW 1.6 km/h 3.2 km/h 85% 0 mm 0 W/m2
03:50 11.5 °C 8.9 °C 1014.4 hPa WSW 1.6 km/h 3.2 km/h 84% 0 mm 0 W/m2
04:00 11.6 °C 9.2 °C 1014.8 hPa WNW 1.6 km/h 3.2 km/h 85% 0 mm 0 W/m2
04:10 11.6 °C 9 °C 1014.4 hPa Calm   3.2 km/h 84% 0 mm 0 W/m2
04:20 11.8 °C 9.2 °C 1014.8 hPa WNW 3.2 km/h 3.2 km/h 84% 0 mm 0 W/m2
04:30 11.8 °C 9.2 °C 1014.4 hPa Calm   3.2 km/h 84% 0 mm 0 W/m2
04:40 11.9 °C 9.3 °C 1014.4 hPa WSW 3.2 km/h 4.8 km/h 84% 0 mm 0 W/m2
04:50 12 °C 9.6 °C 1014.4 hPa Calm   4.8 km/h 85% 0 mm 0 W/m2
05:00 12.1 °C 9.5 °C 1014.4 hPa WSW 1.6 km/h 3.2 km/h 84% 0 mm 1 W/m2
05:10 12.2 °C 9.6 °C 1014.4 hPa WNW 1.6 km/h 4.8 km/h 84% 0 mm 1 W/m2
05:20 12.3 °C 9.7 °C 1014.4 hPa WNW 1.6 km/h 4.8 km/h 84% 0 mm 2 W/m2
05:30 12.4 °C 9.8 °C 1014.4 hPa WNW 1.6 km/h 3.2 km/h 84% 0 mm 6 W/m2
05:40 12.4 °C 9.8 °C 1014.4 hPa West 1.6 km/h 3.2 km/h 84% 0 mm 17 W/m2
05:50 12.5 °C 9.9 °C 1014.4 hPa WNW 3.2 km/h 4.8 km/h 84% 0 mm 8 W/m2
06:00 12.6 °C 9.9 °C 1014.4 hPa Calm   4.8 km/h 84% 0 mm 10 W/m2
06:10 12.7 °C 10.1 °C 1014.1 hPa Calm   3.2 km/h 84% 0 mm 69 W/m2
06:20 12.9 °C 10.1 °C 1014.4 hPa Calm   3.2 km/h 83% 0 mm 63 W/m2
06:30 13.2 °C 10.4 °C 1014.1 hPa North 1.6 km/h 3.2 km/h 83% 0 mm 100 W/m2
06:40 13.4 °C 10.8 °C 1014.4 hPa NW 1.6 km/h 3.2 km/h 84% 0 mm 45 W/m2
06:50 13.6 °C 10.9 °C 1014.4 hPa West 1.6 km/h 3.2 km/h 84% 0 mm 49 W/m2
07:00 13.8 °C 10.9 °C 1014.1 hPa WSW 1.6 km/h 3.2 km/h 83% 0 mm 75 W/m2
07:10 14 °C 11.2 °C 1014.4 hPa WSW 1.6 km/h 4.8 km/h 83% 0 mm 67 W/m2
07:20 14.2 °C 11.3 °C 1014.4 hPa West 1.6 km/h 3.2 km/h 83% 0 mm 69 W/m2
07:30 14.3 °C 11.4 °C 1014.4 hPa WSW 1.6 km/h 3.2 km/h 83% 0 mm 100 W/m2
07:40 14.5 °C 11.3 °C 1014.4 hPa Calm   3.2 km/h 81% 0 mm 139 W/m2
07:50 14.9 °C 11.5 °C 1014.4 hPa Calm   4.8 km/h 80% 0 mm 175 W/m2
08:00 15.3 °C 11.7 °C 1014.4 hPa SW 1.6 km/h 3.2 km/h 79% 0 mm 167 W/m2
08:10 15.8 °C 11.9 °C 1014.4 hPa SW 3.2 km/h 4.8 km/h 78% 0 mm 203 W/m2
08:20 16.2 °C 12.2 °C 1014.4 hPa WNW 1.6 km/h 8 km/h 77% 0 mm 201 W/m2
08:30 16.6 °C 12.2 °C 1014.4 hPa South 1.6 km/h 3.2 km/h 75% 0 mm 229 W/m2
08:40 17.1 °C 12.4 °C 1014.4 hPa East 1.6 km/h 4.8 km/h 74% 0 mm 323 W/m2
08:50 17.5 °C 12.8 °C 1014.4 hPa NNE 3.2 km/h 4.8 km/h 74% 0 mm 236 W/m2
09:00 17.9 °C 13 °C 1014.4 hPa ENE 3.2 km/h 8 km/h 73% 0 mm 238 W/m2
09:10 18.4 °C 13.3 °C 1014.1 hPa ESE 1.6 km/h 6.4 km/h 72% 0 mm 272 W/m2
09:20 18.8 °C 13 °C 1014.1 hPa SW 1.6 km/h 4.8 km/h 69% 0 mm 259 W/m2
09:30 19.4 °C 12.7 °C 1014.1 hPa SSW 1.6 km/h 4.8 km/h 65% 0 mm 705 W/m2
09:40 20.4 °C 13.1 °C 1014.1 hPa South 3.2 km/h 8 km/h 63% 0 mm 735 W/m2
09:50 21.2 °C 13.6 °C 1013.8 hPa NNW 1.6 km/h 6.4 km/h 62% 0 mm 764 W/m2
10:00 22 °C 12.3 °C 1013.8 hPa WSW 12.9 km/h 20.9 km/h 54% 0 mm 791 W/m2
10:10 22.7 °C 13.7 °C 1013.8 hPa SW 11.3 km/h 16.1 km/h 57% 0 mm 820 W/m2
10:20 23 °C 11.7 °C 1013.8 hPa SW 11.3 km/h 20.9 km/h 49% 0 mm 842 W/m2
10:30 23.5 °C 12.2 °C 1013.8 hPa WSW 11.3 km/h 20.9 km/h 49% 0 mm 860 W/m2
10:40 23.9 °C 12.6 °C 1013.8 hPa West 9.7 km/h 19.3 km/h 49% 0 mm 141 W/m2
10:50 24.1 °C 12.4 °C 1013.4 hPa WSW 9.7 km/h 20.9 km/h 48% 0 mm 891 W/m2
11:00 24.4 °C 12.7 °C 1013.4 hPa WNW 11.3 km/h 20.9 km/h 48% 0 mm 905 W/m2
11:10 24.7 °C 12.9 °C 1013.4 hPa West 11.3 km/h 19.3 km/h 48% 0 mm 167 W/m2
11:20 24.9 °C 13.1 °C 1013.4 hPa West 9.7 km/h 14.5 km/h 48% 0 mm 560 W/m2
11:30 25.4 °C 13.3 °C 1013.1 hPa West 9.7 km/h 27.4 km/h 47% 0 mm 347 W/m2
11:40 25.4 °C 12.3 °C 1013.1 hPa West 12.9 km/h 27.4 km/h 44% 0 mm 944 W/m2
11:50 25.4 °C 12.3 °C 1013.1 hPa West 14.5 km/h 25.7 km/h 44% 0 mm 950 W/m2
12:00 25.6 °C 12.8 °C 1013.1 hPa West 12.9 km/h 25.7 km/h 45% 0 mm 955 W/m2
12:10 25.7 °C 12.6 °C 1013.1 hPa West 9.7 km/h 24.1 km/h 44% 0 mm 958 W/m2
12:20 26.2 °C 13 °C 1012.8 hPa NW 8 km/h 20.9 km/h 44% 0 mm 960 W/m2
12:30 26.2 °C 13 °C 1012.8 hPa WNW 9.7 km/h 22.5 km/h 44% 0 mm 960 W/m2
12:40 26.4 °C 12.8 °C 1012.8 hPa WNW 11.3 km/h 22.5 km/h 43% 0 mm 548 W/m2
12:50 26.6 °C 13.3 °C 1012.8 hPa NW 11.3 km/h 20.9 km/h 44% 0 mm 683 W/m2
13:00 26.6 °C 13 °C 1012.8 hPa West 16.1 km/h 22.5 km/h 43% 0 mm 495 W/m2
13:10 26.9 °C 13.3 °C 1012.8 hPa WSW 14.5 km/h 27.4 km/h 43% 0 mm 944 W/m2
13:20 26.7 °C 13.1 °C 1012.8 hPa WSW 20.9 km/h 32.2 km/h 43% 0 mm 937 W/m2
13:30 26.9 °C 13.3 °C 1012.8 hPa West 11.3 km/h 29 km/h 43% 0 mm 927 W/m2
13:40 27.1 °C 13.1 °C 1012.4 hPa WSW 16.1 km/h 27.4 km/h 42% 0 mm 917 W/m2
13:50 27 °C 13.3 °C 1012.4 hPa WSW 12.9 km/h 27.4 km/h 43% 0 mm 905 W/m2
14:00 27.1 °C 13.8 °C 1012.4 hPa West 4.8 km/h 25.7 km/h 44% 0 mm 891 W/m2
14:10 27.4 °C 13.3 °C 1012.1 hPa WSW 19.3 km/h 25.7 km/h 42% 0 mm 876 W/m2
14:20 27.2 °C 13.2 °C 1012.1 hPa WSW 11.3 km/h 30.6 km/h 42% 0 mm 844 W/m2
14:30 27.2 °C 13.6 °C 1012.1 hPa West 8 km/h 27.4 km/h 43% 0 mm 843 W/m2
14:40 27.6 °C 13.6 °C 1012.1 hPa WNW 9.7 km/h 20.9 km/h 42% 0 mm 663 W/m2
14:50 27.4 °C 13.3 °C 1012.1 hPa West 9.7 km/h 27.4 km/h 42% 0 mm 804 W/m2
15:00 27.4 °C 13.3 °C 1012.1 hPa West 11.3 km/h 25.7 km/h 42% 0 mm 783 W/m2
15:10 27.4 °C 13.3 °C 1012.1 hPa WNW 9.7 km/h 25.7 km/h 42% 0 mm 593 W/m2
15:20 27.4 °C 13.3 °C 1011.7 hPa West 11.3 km/h 24.1 km/h 42% 0 mm 737 W/m2
15:30 27.4 °C 13.3 °C 1012.1 hPa WNW 9.7 km/h 32.2 km/h 42% 0 mm 712 W/m2
15:40 27.4 °C 13.7 °C 1011.7 hPa WSW 11.3 km/h 25.7 km/h 43% 0 mm 676 W/m2
15:50 27.1 °C 13.1 °C 1012.1 hPa WSW 8 km/h 27.4 km/h 42% 0 mm 470 W/m2
16:00 26.8 °C 13.2 °C 1012.1 hPa West 11.3 km/h 20.9 km/h 43% 0 mm 569 W/m2
16:10 26.5 °C 12.9 °C 1012.1 hPa West 14.5 km/h 24.1 km/h 43% 0 mm 490 W/m2
16:20 26.4 °C 12.8 °C 1012.1 hPa West 8 km/h 20.9 km/h 43% 0 mm 437 W/m2
16:30 26.3 °C 13.1 °C 1011.7 hPa West 11.3 km/h 19.3 km/h 44% 0 mm 509 W/m2
16:40 26.2 °C 12.9 °C 1011.7 hPa WSW 9.7 km/h 20.9 km/h 44% 0 mm 378 W/m2
16:50 26 °C 12.8 °C 1011.7 hPa West 8 km/h 19.3 km/h 44% 0 mm 256 W/m2
17:00 25.8 °C 12.9 °C 1011.7 hPa WSW 9.7 km/h 16.1 km/h 45% 0 mm 276 W/m2
17:10 25.8 °C 12.9 °C 1012.1 hPa West 9.7 km/h 19.3 km/h 45% 0 mm 249 W/m2
17:20 25.6 °C 12.8 °C 1012.1 hPa West 11.3 km/h 19.3 km/h 45% 0 mm 188 W/m2
17:30 25.5 °C 12.7 °C 1012.1 hPa West 8 km/h 19.3 km/h 45% 0 mm 308 W/m2
17:40 25.5 °C 12.7 °C 1012.1 hPa West 4.8 km/h 16.1 km/h 45% 0 mm 138 W/m2
17:50 25.2 °C 12.4 °C 1012.1 hPa NW 4.8 km/h 12.9 km/h 45% 0 mm 108 W/m2
18:00 25.1 °C 12.3 °C 1011.7 hPa WNW 8 km/h 16.1 km/h 45% 0 mm 117 W/m2
18:10 24.9 °C 12.2 °C 1011.7 hPa NW 8 km/h 14.5 km/h 45% 0 mm 83 W/m2
18:20 24.8 °C 12.7 °C 1012.1 hPa WNW 8 km/h 12.9 km/h 47% 0 mm 60 W/m2
18:30 24.5 °C 12.8 °C 1012.1 hPa WNW 4.8 km/h 12.9 km/h 48% 0 mm 30 W/m2
18:40 24.3 °C 12.6 °C 1012.1 hPa WNW 4.8 km/h 11.3 km/h 48% 0 mm 36 W/m2
18:50 24.1 °C 12.7 °C 1012.1 hPa WNW 4.8 km/h 14.5 km/h 49% 0 mm 33 W/m2
19:00 23.7 °C 12.3 °C 1012.4 hPa WNW 8 km/h 14.5 km/h 49% 0 mm 16 W/m2
19:10 23.4 °C 12.4 °C 1012.4 hPa West 3.2 km/h 14.5 km/h 50% 0 mm 8 W/m2
19:20 23.3 °C 12.9 °C 1012.4 hPa West 3.2 km/h 11.3 km/h 52% 0 mm 8 W/m2
19:30 23.1 °C 12.7 °C 1012.4 hPa WNW 4.8 km/h 11.3 km/h 52% 0 mm 5 W/m2
19:40 22.9 °C 12.8 °C 1012.4 hPa West 3.2 km/h 11.3 km/h 53% 0 mm 4 W/m2
19:50 22.8 °C 12.7 °C 1012.4 hPa WNW 3.2 km/h 8 km/h 53% 0 mm 2 W/m2
20:00 22.6 °C 12.5 °C 1012.1 hPa WNW 1.6 km/h 8 km/h 53% 0 mm 0 W/m2
20:10 22.4 °C 12.3 °C 1012.4 hPa WSW 3.2 km/h 4.8 km/h 53% 0 mm 0 W/m2
20:20 22.2 °C 12.4 °C 1012.4 hPa Calm   4.8 km/h 54% 0 mm 0 W/m2
20:30 22 °C 12.3 °C 1012.4 hPa Calm   3.2 km/h 54% 0 mm 0 W/m2
20:40 21.9 °C 13 °C 1012.8 hPa Calm   6.4 km/h 57% 0 mm 0 W/m2
20:50 21.6 °C 12.7 °C 1012.8 hPa Calm   4.8 km/h 57% 0 mm 0 W/m2
21:00 21.4 °C 12.5 °C 1012.8 hPa Calm   4.8 km/h 57% 0 mm 0 W/m2
21:10 21.1 °C 12.5 °C 1012.8 hPa SSE 1.6 km/h 4.8 km/h 58% 0 mm 0 W/m2
21:20 20.8 °C 12.5 °C 1012.8 hPa Calm   4.8 km/h 59% 0 mm 0 W/m2
21:30 20.6 °C 12.6 °C 1012.8 hPa Calm   3.2 km/h 60% 0 mm 0 W/m2
21:40 20.3 °C 12.3 °C 1012.8 hPa Calm   3.2 km/h 60% 0 mm 0 W/m2
21:50 20 °C 12.4 °C 1012.8 hPa SW 1.6 km/h 4.8 km/h 62% 0 mm 0 W/m2
22:00 19.6 °C 12.1 °C 1012.8 hPa Calm   4.8 km/h 62% 0 mm 0 W/m2
22:10 19.3 °C 12.1 °C 1013.1 hPa SSE 1.6 km/h 6.4 km/h 63% 0 mm 0 W/m2
22:20 19 °C 12 °C 1012.8 hPa Calm   3.2 km/h 64% 0 mm 0 W/m2
22:30 18.8 °C 11.8 °C 1012.8 hPa Calm   3.2 km/h 64% 0 mm 0 W/m2
22:40 18.5 °C 11.8 °C 1013.1 hPa SSE 1.6 km/h 4.8 km/h 65% 0 mm 0 W/m2
22:50 18.2 °C 11.7 °C 1012.8 hPa Calm   3.2 km/h 66% 0 mm 0 W/m2
23:00 18 °C 11.8 °C 1013.1 hPa Calm   3.2 km/h 67% 0 mm 0 W/m2
23:10 17.7 °C 11.7 °C 1013.1 hPa WSW 1.6 km/h 4.8 km/h 68% 0 mm 0 W/m2
23:20 17.5 °C 11.7 °C 1013.1 hPa Calm   1.6 km/h 69% 0 mm 0 W/m2
23:30 17.3 °C 11.6 °C 1013.1 hPa Calm   3.2 km/h 69% 0 mm 0 W/m2
23:40 17.1 °C 11.6 °C 1013.1 hPa Calm   3.2 km/h 70% 0 mm 0 W/m2
23:50 16.9 °C 11.4 °C 1013.1 hPa Calm   3.2 km/h 70% 0 mm 0 W/m2
Knjazevac, Serbia
Compliments of Weather Underground - 2 mb